sensor_id;sensor_type;location;lat;lon;timestamp;P1;durP1;ratioP1;P2;durP2;ratioP2
37641;SDS011;23486;51.956;5.888;2023-03-25T00:01:02;6.57;;;0.43;;
37641;SDS011;23486;51.956;5.888;2023-03-25T00:03:35;3.42;;;0.40;;
37641;SDS011;23486;51.956;5.888;2023-03-25T00:06:03;5.90;;;0.98;;
37641;SDS011;23486;51.956;5.888;2023-03-25T00:08:30;6.85;;;1.38;;
37641;SDS011;23486;51.956;5.888;2023-03-25T00:10:57;4.35;;;0.52;;
37641;SDS011;23486;51.956;5.888;2023-03-25T00:13:24;4.88;;;0.50;;
37641;SDS011;23486;51.956;5.888;2023-03-25T00:15:51;7.70;;;0.68;;
37641;SDS011;23486;51.956;5.888;2023-03-25T00:18:22;7.75;;;0.63;;
37641;SDS011;23486;51.956;5.888;2023-03-25T00:20:48;10.38;;;0.60;;
37641;SDS011;23486;51.956;5.888;2023-03-25T00:23:15;6.10;;;0.50;;
37641;SDS011;23486;51.956;5.888;2023-03-25T00:25:41;7.05;;;0.50;;
37641;SDS011;23486;51.956;5.888;2023-03-25T00:28:09;7.25;;;0.57;;
37641;SDS011;23486;51.956;5.888;2023-03-25T00:30:36;7.97;;;0.52;;
37641;SDS011;23486;51.956;5.888;2023-03-25T00:33:02;9.45;;;0.70;;
37641;SDS011;23486;51.956;5.888;2023-03-25T00:35:28;5.97;;;0.50;;
37641;SDS011;23486;51.956;5.888;2023-03-25T00:37:54;6.78;;;0.68;;
37641;SDS011;23486;51.956;5.888;2023-03-25T00:40:31;4.88;;;0.47;;
37641;SDS011;23486;51.956;5.888;2023-03-25T00:43:01;6.72;;;0.70;;
37641;SDS011;23486;51.956;5.888;2023-03-25T00:45:28;5.50;;;0.68;;
37641;SDS011;23486;51.956;5.888;2023-03-25T00:47:54;7.45;;;1.35;;
37641;SDS011;23486;51.956;5.888;2023-03-25T00:50:21;3.95;;;0.47;;
37641;SDS011;23486;51.956;5.888;2023-03-25T00:52:47;9.57;;;0.80;;
37641;SDS011;23486;51.956;5.888;2023-03-25T00:55:13;6.25;;;0.80;;
37641;SDS011;23486;51.956;5.888;2023-03-25T00:57:38;9.57;;;0.93;;
37641;SDS011;23486;51.956;5.888;2023-03-25T01:00:05;6.70;;;1.00;;
37641;SDS011;23486;51.956;5.888;2023-03-25T01:02:33;7.85;;;1.85;;
37641;SDS011;23486;51.956;5.888;2023-03-25T01:04:59;9.05;;;1.48;;
37641;SDS011;23486;51.956;5.888;2023-03-25T01:07:28;6.70;;;0.80;;
37641;SDS011;23486;51.956;5.888;2023-03-25T01:09:56;7.97;;;0.90;;
37641;SDS011;23486;51.956;5.888;2023-03-25T01:12:23;5.70;;;0.52;;
37641;SDS011;23486;51.956;5.888;2023-03-25T01:14:50;6.03;;;1.10;;
37641;SDS011;23486;51.956;5.888;2023-03-25T01:17:16;7.75;;;1.25;;
37641;SDS011;23486;51.956;5.888;2023-03-25T01:19:41;5.95;;;0.90;;
37641;SDS011;23486;51.956;5.888;2023-03-25T01:22:07;8.35;;;1.23;;
37641;SDS011;23486;51.956;5.888;2023-03-25T01:24:32;12.80;;;0.90;;
37641;SDS011;23486;51.956;5.888;2023-03-25T01:26:58;6.80;;;0.93;;
37641;SDS011;23486;51.956;5.888;2023-03-25T01:29:24;8.00;;;0.50;;
37641;SDS011;23486;51.956;5.888;2023-03-25T01:31:50;8.18;;;0.70;;
37641;SDS011;23486;51.956;5.888;2023-03-25T01:34:17;9.00;;;0.80;;
37641;SDS011;23486;51.956;5.888;2023-03-25T01:36:49;7.75;;;0.60;;
37641;SDS011;23486;51.956;5.888;2023-03-25T01:39:16;6.40;;;0.77;;
37641;SDS011;23486;51.956;5.888;2023-03-25T01:41:46;10.23;;;1.05;;
37641;SDS011;23486;51.956;5.888;2023-03-25T01:46:38;11.20;;;1.63;;
37641;SDS011;23486;51.956;5.888;2023-03-25T01:49:11;5.43;;;0.82;;
37641;SDS011;23486;51.956;5.888;2023-03-25T01:51:42;7.57;;;0.90;;
37641;SDS011;23486;51.956;5.888;2023-03-25T01:54:12;7.68;;;1.02;;
37641;SDS011;23486;51.956;5.888;2023-03-25T01:56:41;19.10;;;1.02;;
37641;SDS011;23486;51.956;5.888;2023-03-25T01:59:11;7.50;;;0.70;;
37641;SDS011;23486;51.956;5.888;2023-03-25T02:01:38;12.57;;;0.50;;
37641;SDS011;23486;51.956;5.888;2023-03-25T02:04:04;10.63;;;1.15;;
37641;SDS011;23486;51.956;5.888;2023-03-25T02:06:37;13.00;;;0.80;;
37641;SDS011;23486;51.956;5.888;2023-03-25T02:09:19;11.38;;;0.90;;
37641;SDS011;23486;51.956;5.888;2023-03-25T02:11:48;9.35;;;0.70;;
37641;SDS011;23486;51.956;5.888;2023-03-25T02:14:15;10.18;;;0.80;;
37641;SDS011;23486;51.956;5.888;2023-03-25T02:22:35;7.10;;;0.80;;
37641;SDS011;23486;51.956;5.888;2023-03-25T02:47:23;7.05;;;1.20;;
37641;SDS011;23486;51.956;5.888;2023-03-25T02:49:57;6.45;;;0.77;;
37641;SDS011;23486;51.956;5.888;2023-03-25T02:52:36;10.43;;;1.20;;
37641;SDS011;23486;51.956;5.888;2023-03-25T02:55:06;7.22;;;0.95;;
37641;SDS011;23486;51.956;5.888;2023-03-25T02:57:36;7.05;;;1.77;;
37641;SDS011;23486;51.956;5.888;2023-03-25T03:00:05;4.95;;;0.70;;
37641;SDS011;23486;51.956;5.888;2023-03-25T03:02:39;4.45;;;0.95;;
37641;SDS011;23486;51.956;5.888;2023-03-25T03:05:25;7.63;;;1.75;;
37641;SDS011;23486;51.956;5.888;2023-03-25T03:10:41;8.18;;;0.88;;
37641;SDS011;23486;51.956;5.888;2023-03-25T03:21:11;9.02;;;1.05;;
37641;SDS011;23486;51.956;5.888;2023-03-25T03:24:24;4.95;;;1.17;;
37641;SDS011;23486;51.956;5.888;2023-03-25T03:26:37;6.57;;;1.25;;
37641;SDS011;23486;51.956;5.888;2023-03-25T03:29:18;7.50;;;1.50;;
37641;SDS011;23486;51.956;5.888;2023-03-25T03:34:29;9.48;;;1.55;;
37641;SDS011;23486;51.956;5.888;2023-03-25T03:37:17;6.53;;;1.10;;
37641;SDS011;23486;51.956;5.888;2023-03-25T03:39:48;8.23;;;2.13;;
37641;SDS011;23486;51.956;5.888;2023-03-25T03:42:20;8.13;;;1.40;;
37641;SDS011;23486;51.956;5.888;2023-03-25T03:44:59;3.85;;;1.30;;
37641;SDS011;23486;51.956;5.888;2023-03-25T03:47:35;9.18;;;1.60;;
37641;SDS011;23486;51.956;5.888;2023-03-25T03:50:06;3.75;;;1.13;;
37641;SDS011;23486;51.956;5.888;2023-03-25T03:52:41;8.07;;;1.40;;
37641;SDS011;23486;51.956;5.888;2023-03-25T03:57:46;10.32;;;1.98;;
37641;SDS011;23486;51.956;5.888;2023-03-25T04:00:17;8.93;;;1.48;;
37641;SDS011;23486;51.956;5.888;2023-03-25T04:02:51;11.20;;;1.03;;
37641;SDS011;23486;51.956;5.888;2023-03-25T04:05:18;5.95;;;1.20;;
37641;SDS011;23486;51.956;5.888;2023-03-25T04:07:54;7.90;;;1.25;;
37641;SDS011;23486;51.956;5.888;2023-03-25T04:10:39;11.52;;;1.67;;
37641;SDS011;23486;51.956;5.888;2023-03-25T04:13:11;9.80;;;1.70;;
37641;SDS011;23486;51.956;5.888;2023-03-25T04:15:40;9.95;;;1.38;;
37641;SDS011;23486;51.956;5.888;2023-03-25T04:18:06;7.43;;;1.25;;
37641;SDS011;23486;51.956;5.888;2023-03-25T04:20:32;12.57;;;1.30;;
37641;SDS011;23486;51.956;5.888;2023-03-25T04:23:00;9.82;;;1.25;;
37641;SDS011;23486;51.956;5.888;2023-03-25T04:25:28;8.45;;;1.50;;
37641;SDS011;23486;51.956;5.888;2023-03-25T04:27:56;9.43;;;1.80;;
37641;SDS011;23486;51.956;5.888;2023-03-25T04:30:24;6.47;;;0.88;;
37641;SDS011;23486;51.956;5.888;2023-03-25T04:32:51;6.75;;;1.17;;
37641;SDS011;23486;51.956;5.888;2023-03-25T04:35:17;9.02;;;1.00;;
37641;SDS011;23486;51.956;5.888;2023-03-25T04:37:52;10.52;;;1.42;;
37641;SDS011;23486;51.956;5.888;2023-03-25T04:40:18;12.13;;;1.60;;
37641;SDS011;23486;51.956;5.888;2023-03-25T04:42:47;14.95;;;1.77;;
37641;SDS011;23486;51.956;5.888;2023-03-25T04:45:13;7.60;;;1.73;;
37641;SDS011;23486;51.956;5.888;2023-03-25T04:47:42;9.20;;;1.30;;
37641;SDS011;23486;51.956;5.888;2023-03-25T04:50:27;12.27;;;1.60;;
37641;SDS011;23486;51.956;5.888;2023-03-25T04:52:54;11.32;;;1.13;;
37641;SDS011;23486;51.956;5.888;2023-03-25T04:55:22;14.63;;;1.77;;
37641;SDS011;23486;51.956;5.888;2023-03-25T04:57:50;9.43;;;0.95;;
37641;SDS011;23486;51.956;5.888;2023-03-25T05:00:17;9.10;;;1.40;;
37641;SDS011;23486;51.956;5.888;2023-03-25T05:02:46;9.85;;;1.38;;
37641;SDS011;23486;51.956;5.888;2023-03-25T05:05:14;7.82;;;1.13;;
37641;SDS011;23486;51.956;5.888;2023-03-25T05:07:45;11.15;;;1.60;;
37641;SDS011;23486;51.956;5.888;2023-03-25T05:10:13;7.68;;;1.25;;
37641;SDS011;23486;51.956;5.888;2023-03-25T05:12:40;9.77;;;1.45;;
37641;SDS011;23486;51.956;5.888;2023-03-25T05:15:06;13.73;;;1.58;;
37641;SDS011;23486;51.956;5.888;2023-03-25T05:17:32;10.18;;;0.82;;
37641;SDS011;23486;51.956;5.888;2023-03-25T05:19:58;5.15;;;0.77;;
37641;SDS011;23486;51.956;5.888;2023-03-25T05:22:23;8.50;;;1.55;;
37641;SDS011;23486;51.956;5.888;2023-03-25T05:24:49;10.65;;;1.15;;
37641;SDS011;23486;51.956;5.888;2023-03-25T05:27:17;7.88;;;1.65;;
37641;SDS011;23486;51.956;5.888;2023-03-25T05:29:44;6.45;;;1.17;;
37641;SDS011;23486;51.956;5.888;2023-03-25T05:32:10;7.28;;;1.60;;
37641;SDS011;23486;51.956;5.888;2023-03-25T05:34:37;8.15;;;1.52;;
37641;SDS011;23486;51.956;5.888;2023-03-25T05:37:03;9.95;;;1.70;;
37641;SDS011;23486;51.956;5.888;2023-03-25T05:39:29;6.35;;;1.35;;
37641;SDS011;23486;51.956;5.888;2023-03-25T05:41:55;9.02;;;1.50;;
37641;SDS011;23486;51.956;5.888;2023-03-25T05:44:26;8.63;;;1.42;;
37641;SDS011;23486;51.956;5.888;2023-03-25T05:46:52;8.68;;;0.90;;
37641;SDS011;23486;51.956;5.888;2023-03-25T05:49:18;6.78;;;1.20;;
37641;SDS011;23486;51.956;5.888;2023-03-25T05:51:48;6.13;;;1.02;;
37641;SDS011;23486;51.956;5.888;2023-03-25T05:54:18;8.55;;;1.17;;
37641;SDS011;23486;51.956;5.888;2023-03-25T05:56:43;8.13;;;1.70;;
37641;SDS011;23486;51.956;5.888;2023-03-25T05:59:09;7.75;;;1.17;;
37641;SDS011;23486;51.956;5.888;2023-03-25T06:01:35;6.80;;;1.40;;
37641;SDS011;23486;51.956;5.888;2023-03-25T06:04:02;9.57;;;1.52;;
37641;SDS011;23486;51.956;5.888;2023-03-25T06:06:28;7.90;;;1.58;;
37641;SDS011;23486;51.956;5.888;2023-03-25T06:08:54;6.82;;;1.60;;
37641;SDS011;23486;51.956;5.888;2023-03-25T06:11:21;9.25;;;1.63;;
37641;SDS011;23486;51.956;5.888;2023-03-25T06:13:47;5.85;;;1.73;;
37641;SDS011;23486;51.956;5.888;2023-03-25T06:16:16;8.88;;;2.03;;
37641;SDS011;23486;51.956;5.888;2023-03-25T06:18:46;11.60;;;1.80;;
37641;SDS011;23486;51.956;5.888;2023-03-25T06:21:23;8.57;;;1.73;;
37641;SDS011;23486;51.956;5.888;2023-03-25T06:23:50;6.97;;;1.48;;
37641;SDS011;23486;51.956;5.888;2023-03-25T06:26:18;11.63;;;2.20;;
37641;SDS011;23486;51.956;5.888;2023-03-25T06:28:45;9.57;;;2.28;;
37641;SDS011;23486;51.956;5.888;2023-03-25T06:31:14;8.45;;;1.88;;
37641;SDS011;23486;51.956;5.888;2023-03-25T06:33:42;14.98;;;2.63;;
37641;SDS011;23486;51.956;5.888;2023-03-25T06:36:11;10.43;;;2.97;;
37641;SDS011;23486;51.956;5.888;2023-03-25T06:38:39;12.30;;;2.03;;
37641;SDS011;23486;51.956;5.888;2023-03-25T06:41:05;12.15;;;2.33;;
37641;SDS011;23486;51.956;5.888;2023-03-25T06:43:31;9.85;;;2.25;;
37641;SDS011;23486;51.956;5.888;2023-03-25T06:45:57;11.00;;;2.22;;
37641;SDS011;23486;51.956;5.888;2023-03-25T06:48:23;13.27;;;2.22;;
37641;SDS011;23486;51.956;5.888;2023-03-25T06:50:49;11.75;;;2.70;;
37641;SDS011;23486;51.956;5.888;2023-03-25T06:53:14;11.95;;;2.38;;
37641;SDS011;23486;51.956;5.888;2023-03-25T06:55:40;7.28;;;2.10;;
37641;SDS011;23486;51.956;5.888;2023-03-25T06:58:08;8.80;;;2.22;;
37641;SDS011;23486;51.956;5.888;2023-03-25T07:00:35;11.35;;;2.65;;
37641;SDS011;23486;51.956;5.888;2023-03-25T07:03:01;12.98;;;1.85;;
37641;SDS011;23486;51.956;5.888;2023-03-25T07:05:27;6.57;;;1.90;;
37641;SDS011;23486;51.956;5.888;2023-03-25T07:07:52;16.98;;;1.83;;
37641;SDS011;23486;51.956;5.888;2023-03-25T07:10:18;16.15;;;1.88;;
37641;SDS011;23486;51.956;5.888;2023-03-25T07:12:44;10.95;;;1.40;;
37641;SDS011;23486;51.956;5.888;2023-03-25T07:15:10;11.68;;;1.73;;
37641;SDS011;23486;51.956;5.888;2023-03-25T07:17:38;10.15;;;1.65;;
37641;SDS011;23486;51.956;5.888;2023-03-25T07:20:04;13.20;;;1.67;;
37641;SDS011;23486;51.956;5.888;2023-03-25T07:22:31;15.77;;;1.88;;
37641;SDS011;23486;51.956;5.888;2023-03-25T07:24:57;20.23;;;2.35;;
37641;SDS011;23486;51.956;5.888;2023-03-25T07:27:22;12.65;;;1.92;;
37641;SDS011;23486;51.956;5.888;2023-03-25T07:29:48;13.52;;;2.13;;
37641;SDS011;23486;51.956;5.888;2023-03-25T07:32:14;14.32;;;2.70;;
37641;SDS011;23486;51.956;5.888;2023-03-25T07:34:40;18.40;;;2.08;;
37641;SDS011;23486;51.956;5.888;2023-03-25T07:37:05;9.27;;;1.48;;
37641;SDS011;23486;51.956;5.888;2023-03-25T07:39:32;17.63;;;2.20;;
37641;SDS011;23486;51.956;5.888;2023-03-25T07:41:58;14.13;;;2.15;;
37641;SDS011;23486;51.956;5.888;2023-03-25T07:44:23;12.20;;;2.20;;
37641;SDS011;23486;51.956;5.888;2023-03-25T07:46:49;16.92;;;2.55;;
37641;SDS011;23486;51.956;5.888;2023-03-25T07:49:15;13.68;;;2.38;;
37641;SDS011;23486;51.956;5.888;2023-03-25T07:51:41;15.55;;;2.42;;
37641;SDS011;23486;51.956;5.888;2023-03-25T07:54:07;18.92;;;3.33;;
37641;SDS011;23486;51.956;5.888;2023-03-25T07:56:33;14.88;;;2.15;;
37641;SDS011;23486;51.956;5.888;2023-03-25T07:58:59;17.70;;;2.78;;
37641;SDS011;23486;51.956;5.888;2023-03-25T08:01:25;20.88;;;3.60;;
37641;SDS011;23486;51.956;5.888;2023-03-25T08:03:51;15.45;;;2.90;;
37641;SDS011;23486;51.956;5.888;2023-03-25T08:06:16;12.30;;;2.65;;
37641;SDS011;23486;51.956;5.888;2023-03-25T08:08:42;11.90;;;1.85;;
37641;SDS011;23486;51.956;5.888;2023-03-25T08:11:08;14.82;;;2.72;;
37641;SDS011;23486;51.956;5.888;2023-03-25T08:13:34;20.17;;;3.20;;
37641;SDS011;23486;51.956;5.888;2023-03-25T08:16:00;15.32;;;2.33;;
37641;SDS011;23486;51.956;5.888;2023-03-25T08:18:26;17.08;;;3.60;;
37641;SDS011;23486;51.956;5.888;2023-03-25T08:20:52;12.68;;;2.47;;
37641;SDS011;23486;51.956;5.888;2023-03-25T08:23:18;10.88;;;2.50;;
37641;SDS011;23486;51.956;5.888;2023-03-25T08:25:45;16.30;;;1.95;;
37641;SDS011;23486;51.956;5.888;2023-03-25T08:28:15;15.73;;;2.40;;
37641;SDS011;23486;51.956;5.888;2023-03-25T08:30:45;17.77;;;2.70;;
37641;SDS011;23486;51.956;5.888;2023-03-25T08:33:14;14.50;;;2.67;;
37641;SDS011;23486;51.956;5.888;2023-03-25T08:35:42;19.30;;;2.13;;
37641;SDS011;23486;51.956;5.888;2023-03-25T08:38:08;13.38;;;1.75;;
37641;SDS011;23486;51.956;5.888;2023-03-25T08:40:34;13.10;;;1.50;;
37641;SDS011;23486;51.956;5.888;2023-03-25T08:43:03;11.18;;;1.90;;
37641;SDS011;23486;51.956;5.888;2023-03-25T08:45:30;10.27;;;1.98;;
37641;SDS011;23486;51.956;5.888;2023-03-25T08:47:57;16.92;;;2.50;;
37641;SDS011;23486;51.956;5.888;2023-03-25T08:50:23;13.85;;;2.10;;
37641;SDS011;23486;51.956;5.888;2023-03-25T08:52:49;13.75;;;2.08;;
37641;SDS011;23486;51.956;5.888;2023-03-25T08:55:17;10.93;;;1.73;;
37641;SDS011;23486;51.956;5.888;2023-03-25T08:57:43;15.35;;;2.70;;
37641;SDS011;23486;51.956;5.888;2023-03-25T09:00:09;13.70;;;2.15;;
37641;SDS011;23486;51.956;5.888;2023-03-25T09:02:38;19.25;;;2.83;;
37641;SDS011;23486;51.956;5.888;2023-03-25T09:05:06;18.17;;;2.10;;
37641;SDS011;23486;51.956;5.888;2023-03-25T09:07:32;15.18;;;3.00;;
37641;SDS011;23486;51.956;5.888;2023-03-25T09:09:58;20.33;;;1.95;;
37641;SDS011;23486;51.956;5.888;2023-03-25T09:12:24;18.75;;;2.47;;
37641;SDS011;23486;51.956;5.888;2023-03-25T09:14:49;19.10;;;2.58;;
37641;SDS011;23486;51.956;5.888;2023-03-25T09:17:15;19.15;;;2.72;;
37641;SDS011;23486;51.956;5.888;2023-03-25T09:19:40;14.57;;;1.70;;
37641;SDS011;23486;51.956;5.888;2023-03-25T09:22:06;20.45;;;1.40;;
37641;SDS011;23486;51.956;5.888;2023-03-25T09:24:32;11.57;;;1.10;;
37641;SDS011;23486;51.956;5.888;2023-03-25T09:26:58;14.75;;;1.50;;
37641;SDS011;23486;51.956;5.888;2023-03-25T09:29:25;19.42;;;2.50;;
37641;SDS011;23486;51.956;5.888;2023-03-25T09:31:52;13.88;;;2.08;;
37641;SDS011;23486;51.956;5.888;2023-03-25T09:34:20;14.13;;;2.05;;
37641;SDS011;23486;51.956;5.888;2023-03-25T09:36:46;10.68;;;1.77;;
37641;SDS011;23486;51.956;5.888;2023-03-25T09:39:11;15.05;;;1.67;;
37641;SDS011;23486;51.956;5.888;2023-03-25T09:46:57;22.20;;;2.75;;
37641;SDS011;23486;51.956;5.888;2023-03-25T09:49:32;15.13;;;2.00;;
37641;SDS011;23486;51.956;5.888;2023-03-25T09:52:02;17.58;;;2.40;;
37641;SDS011;23486;51.956;5.888;2023-03-25T09:54:34;18.77;;;2.92;;
37641;SDS011;23486;51.956;5.888;2023-03-25T09:57:11;18.27;;;2.85;;
37641;SDS011;23486;51.956;5.888;2023-03-25T09:59:46;22.85;;;3.35;;
37641;SDS011;23486;51.956;5.888;2023-03-25T10:10:47;13.93;;;1.52;;
37641;SDS011;23486;51.956;5.888;2023-03-25T10:13:19;16.48;;;1.88;;
37641;SDS011;23486;51.956;5.888;2023-03-25T10:21:48;13.95;;;1.10;;
37641;SDS011;23486;51.956;5.888;2023-03-25T10:23:57;15.77;;;1.58;;
37641;SDS011;23486;51.956;5.888;2023-03-25T10:26:59;24.95;;;3.85;;
37641;SDS011;23486;51.956;5.888;2023-03-25T10:29:35;20.75;;;2.17;;
37641;SDS011;23486;51.956;5.888;2023-03-25T10:32:11;21.98;;;1.98;;
37641;SDS011;23486;51.956;5.888;2023-03-25T10:34:43;19.55;;;1.85;;
37641;SDS011;23486;51.956;5.888;2023-03-25T10:37:15;16.95;;;2.50;;
37641;SDS011;23486;51.956;5.888;2023-03-25T10:42:23;19.50;;;2.03;;
37641;SDS011;23486;51.956;5.888;2023-03-25T10:44:53;26.75;;;3.00;;
37641;SDS011;23486;51.956;5.888;2023-03-25T10:47:19;19.90;;;3.25;;
37641;SDS011;23486;51.956;5.888;2023-03-25T10:49:50;25.02;;;2.00;;
37641;SDS011;23486;51.956;5.888;2023-03-25T10:52:20;23.15;;;2.88;;
37641;SDS011;23486;51.956;5.888;2023-03-25T10:54:50;14.43;;;1.38;;
37641;SDS011;23486;51.956;5.888;2023-03-25T10:57:22;15.93;;;1.52;;
37641;SDS011;23486;51.956;5.888;2023-03-25T10:59:59;16.63;;;1.88;;
37641;SDS011;23486;51.956;5.888;2023-03-25T11:02:42;17.30;;;2.10;;
37641;SDS011;23486;51.956;5.888;2023-03-25T11:05:09;19.80;;;2.17;;
37641;SDS011;23486;51.956;5.888;2023-03-25T11:07:39;23.90;;;3.20;;
37641;SDS011;23486;51.956;5.888;2023-03-25T11:10:24;20.45;;;2.53;;
37641;SDS011;23486;51.956;5.888;2023-03-25T11:12:52;22.08;;;1.95;;
37641;SDS011;23486;51.956;5.888;2023-03-25T11:15:21;30.17;;;3.22;;
37641;SDS011;23486;51.956;5.888;2023-03-25T11:18:14;18.33;;;2.72;;
37641;SDS011;23486;51.956;5.888;2023-03-25T11:20:49;24.27;;;2.00;;
37641;SDS011;23486;51.956;5.888;2023-03-25T11:23:23;20.00;;;2.10;;
37641;SDS011;23486;51.956;5.888;2023-03-25T11:26:05;22.55;;;2.28;;
37641;SDS011;23486;51.956;5.888;2023-03-25T11:28:45;20.67;;;3.45;;
37641;SDS011;23486;51.956;5.888;2023-03-25T11:31:16;30.75;;;2.40;;
37641;SDS011;23486;51.956;5.888;2023-03-25T11:33:45;23.35;;;2.28;;
37641;SDS011;23486;51.956;5.888;2023-03-25T11:36:30;20.17;;;2.03;;
37641;SDS011;23486;51.956;5.888;2023-03-25T11:38:59;21.95;;;2.63;;
37641;SDS011;23486;51.956;5.888;2023-03-25T11:41:29;17.33;;;1.80;;
37641;SDS011;23486;51.956;5.888;2023-03-25T11:43:56;20.67;;;2.50;;
37641;SDS011;23486;51.956;5.888;2023-03-25T11:46:22;23.20;;;2.50;;
37641;SDS011;23486;51.956;5.888;2023-03-25T11:48:48;18.08;;;1.92;;
37641;SDS011;23486;51.956;5.888;2023-03-25T11:51:15;20.83;;;1.58;;
37641;SDS011;23486;51.956;5.888;2023-03-25T11:53:46;12.82;;;1.42;;
37641;SDS011;23486;51.956;5.888;2023-03-25T11:56:19;17.98;;;1.48;;
37641;SDS011;23486;51.956;5.888;2023-03-25T11:58:47;15.65;;;1.65;;
37641;SDS011;23486;51.956;5.888;2023-03-25T12:01:19;11.27;;;1.02;;
37641;SDS011;23486;51.956;5.888;2023-03-25T12:03:47;13.95;;;0.80;;
37641;SDS011;23486;51.956;5.888;2023-03-25T12:06:17;11.88;;;1.35;;
37641;SDS011;23486;51.956;5.888;2023-03-25T12:08:52;16.70;;;1.10;;
37641;SDS011;23486;51.956;5.888;2023-03-25T12:11:23;18.10;;;1.00;;
37641;SDS011;23486;51.956;5.888;2023-03-25T12:19:07;11.75;;;1.23;;
37641;SDS011;23486;51.956;5.888;2023-03-25T12:27:09;14.68;;;1.05;;
37641;SDS011;23486;51.956;5.888;2023-03-25T12:32:46;13.25;;;1.00;;
37641;SDS011;23486;51.956;5.888;2023-03-25T12:35:36;14.07;;;1.33;;
37641;SDS011;23486;51.956;5.888;2023-03-25T12:49:25;12.05;;;0.70;;
37641;SDS011;23486;51.956;5.888;2023-03-25T12:55:33;10.70;;;0.90;;
37641;SDS011;23486;51.956;5.888;2023-03-25T13:01:18;6.60;;;0.43;;
37641;SDS011;23486;51.956;5.888;2023-03-25T13:04:14;5.88;;;0.50;;
37641;SDS011;23486;51.956;5.888;2023-03-25T13:07:04;12.18;;;0.60;;
37641;SDS011;23486;51.956;5.888;2023-03-25T13:14:59;8.85;;;0.60;;
37641;SDS011;23486;51.956;5.888;2023-03-25T13:17:49;13.82;;;1.25;;
37641;SDS011;23486;51.956;5.888;2023-03-25T13:20:17;13.98;;;0.80;;
37641;SDS011;23486;51.956;5.888;2023-03-25T13:22:48;12.32;;;1.02;;
37641;SDS011;23486;51.956;5.888;2023-03-25T13:25:18;14.18;;;0.85;;
37641;SDS011;23486;51.956;5.888;2023-03-25T13:27:48;18.73;;;1.60;;
37641;SDS011;23486;51.956;5.888;2023-03-25T13:30:26;21.67;;;1.75;;
37641;SDS011;23486;51.956;5.888;2023-03-25T13:32:57;14.85;;;1.75;;
37641;SDS011;23486;51.956;5.888;2023-03-25T13:38:11;16.17;;;1.13;;
37641;SDS011;23486;51.956;5.888;2023-03-25T13:46:32;14.73;;;0.85;;
37641;SDS011;23486;51.956;5.888;2023-03-25T13:49:20;12.05;;;1.77;;
37641;SDS011;23486;51.956;5.888;2023-03-25T13:51:50;11.30;;;0.75;;
37641;SDS011;23486;51.956;5.888;2023-03-25T14:02:56;14.02;;;0.82;;
37641;SDS011;23486;51.956;5.888;2023-03-25T14:14:14;7.93;;;1.03;;
37641;SDS011;23486;51.956;5.888;2023-03-25T14:16:49;12.73;;;0.70;;
37641;SDS011;23486;51.956;5.888;2023-03-25T14:19:30;8.63;;;0.40;;
37641;SDS011;23486;51.956;5.888;2023-03-25T14:22:12;11.13;;;0.88;;
37641;SDS011;23486;51.956;5.888;2023-03-25T14:24:40;5.07;;;0.40;;
37641;SDS011;23486;51.956;5.888;2023-03-25T14:27:17;11.35;;;1.23;;
37641;SDS011;23486;51.956;5.888;2023-03-25T14:30:18;12.80;;;1.00;;
37641;SDS011;23486;51.956;5.888;2023-03-25T14:32:44;10.30;;;0.60;;
37641;SDS011;23486;51.956;5.888;2023-03-25T14:48:30;8.10;;;0.40;;
37641;SDS011;23486;51.956;5.888;2023-03-25T14:53:51;8.90;;;0.47;;
37641;SDS011;23486;51.956;5.888;2023-03-25T14:56:30;10.00;;;0.70;;
37641;SDS011;23486;51.956;5.888;2023-03-25T14:59:05;8.48;;;0.55;;
37641;SDS011;23486;51.956;5.888;2023-03-25T15:01:39;10.05;;;0.80;;
37641;SDS011;23486;51.956;5.888;2023-03-25T15:04:12;10.80;;;1.17;;
37641;SDS011;23486;51.956;5.888;2023-03-25T15:06:38;13.95;;;0.70;;
37641;SDS011;23486;51.956;5.888;2023-03-25T15:09:06;14.50;;;1.00;;
37641;SDS011;23486;51.956;5.888;2023-03-25T15:11:39;15.82;;;1.00;;
37641;SDS011;23486;51.956;5.888;2023-03-25T15:14:09;10.55;;;0.80;;
37641;SDS011;23486;51.956;5.888;2023-03-25T15:19:12;9.23;;;0.70;;
37641;SDS011;23486;51.956;5.888;2023-03-25T15:26:57;11.75;;;0.70;;
37641;SDS011;23486;51.956;5.888;2023-03-25T15:32:07;8.98;;;0.73;;
37641;SDS011;23486;51.956;5.888;2023-03-25T15:35:01;7.03;;;0.60;;
37641;SDS011;23486;51.956;5.888;2023-03-25T15:54:47;11.43;;;0.60;;
37641;SDS011;23486;51.956;5.888;2023-03-25T15:57:25;7.80;;;0.80;;
37641;SDS011;23486;51.956;5.888;2023-03-25T16:05:30;9.90;;;1.63;;
37641;SDS011;23486;51.956;5.888;2023-03-25T16:08:18;8.60;;;0.88;;
37641;SDS011;23486;51.956;5.888;2023-03-25T16:13:44;12.43;;;0.88;;
37641;SDS011;23486;51.956;5.888;2023-03-25T16:16:24;7.75;;;0.70;;
37641;SDS011;23486;51.956;5.888;2023-03-25T16:18:52;8.90;;;0.63;;
37641;SDS011;23486;51.956;5.888;2023-03-25T16:21:19;10.90;;;0.93;;
37641;SDS011;23486;51.956;5.888;2023-03-25T16:23:46;5.57;;;0.60;;
37641;SDS011;23486;51.956;5.888;2023-03-25T16:26:32;3.40;;;0.70;;
37641;SDS011;23486;51.956;5.888;2023-03-25T16:29:15;3.55;;;1.00;;
37641;SDS011;23486;51.956;5.888;2023-03-25T16:34:25;3.42;;;0.40;;
37641;SDS011;23486;51.956;5.888;2023-03-25T16:36:53;3.50;;;0.40;;
37641;SDS011;23486;51.956;5.888;2023-03-25T16:39:20;1.45;;;0.20;;
37641;SDS011;23486;51.956;5.888;2023-03-25T16:41:49;6.13;;;0.57;;
37641;SDS011;23486;51.956;5.888;2023-03-25T16:44:23;8.35;;;0.80;;
37641;SDS011;23486;51.956;5.888;2023-03-25T16:46:49;7.80;;;0.82;;
37641;SDS011;23486;51.956;5.888;2023-03-25T16:49:50;6.35;;;0.70;;
37641;SDS011;23486;51.956;5.888;2023-03-25T16:52:12;8.68;;;0.70;;
37641;SDS011;23486;51.956;5.888;2023-03-25T16:57:25;13.27;;;1.50;;
37641;SDS011;23486;51.956;5.888;2023-03-25T16:59:53;12.73;;;1.40;;
37641;SDS011;23486;51.956;5.888;2023-03-25T17:02:38;9.52;;;1.00;;
37641;SDS011;23486;51.956;5.888;2023-03-25T17:05:19;17.63;;;1.20;;
37641;SDS011;23486;51.956;5.888;2023-03-25T17:07:47;15.32;;;1.60;;
37641;SDS011;23486;51.956;5.888;2023-03-25T17:10:26;13.50;;;1.58;;
37641;SDS011;23486;51.956;5.888;2023-03-25T17:12:57;10.77;;;1.35;;
37641;SDS011;23486;51.956;5.888;2023-03-25T17:15:29;16.48;;;1.45;;
37641;SDS011;23486;51.956;5.888;2023-03-25T17:17:58;11.82;;;1.42;;
37641;SDS011;23486;51.956;5.888;2023-03-25T17:20:41;9.60;;;0.98;;
37641;SDS011;23486;51.956;5.888;2023-03-25T17:25:57;7.22;;;0.75;;
37641;SDS011;23486;51.956;5.888;2023-03-25T17:28:40;7.95;;;0.40;;
37641;SDS011;23486;51.956;5.888;2023-03-25T17:31:27;5.22;;;0.52;;
37641;SDS011;23486;51.956;5.888;2023-03-25T17:34:15;7.93;;;0.68;;
37641;SDS011;23486;51.956;5.888;2023-03-25T17:39:30;5.75;;;0.50;;
37641;SDS011;23486;51.956;5.888;2023-03-25T17:42:02;11.60;;;0.70;;
37641;SDS011;23486;51.956;5.888;2023-03-25T17:44:33;6.38;;;0.65;;
37641;SDS011;23486;51.956;5.888;2023-03-25T17:47:03;8.15;;;0.90;;
37641;SDS011;23486;51.956;5.888;2023-03-25T17:49:29;6.50;;;0.43;;
37641;SDS011;23486;51.956;5.888;2023-03-25T17:51:55;9.10;;;0.60;;
37641;SDS011;23486;51.956;5.888;2023-03-25T17:54:22;8.85;;;0.75;;
37641;SDS011;23486;51.956;5.888;2023-03-25T17:56:48;9.70;;;1.70;;
37641;SDS011;23486;51.956;5.888;2023-03-25T17:59:17;5.78;;;0.70;;
37641;SDS011;23486;51.956;5.888;2023-03-25T18:01:45;5.15;;;0.82;;
37641;SDS011;23486;51.956;5.888;2023-03-25T18:04:12;11.60;;;1.60;;
37641;SDS011;23486;51.956;5.888;2023-03-25T18:06:38;15.45;;;0.98;;
37641;SDS011;23486;51.956;5.888;2023-03-25T18:09:08;10.80;;;0.90;;
37641;SDS011;23486;51.956;5.888;2023-03-25T18:11:44;15.27;;;1.30;;
37641;SDS011;23486;51.956;5.888;2023-03-25T18:14:11;11.38;;;1.05;;